Time;durP1;ratioP1;P1;durP2;ratioP2;P2;SDS_P1;SDS_P2;PMS_P1;PMS_P2;Temp;Humidity;BMP_temperature;BMP_pressure;BME280_temperature;BME280_humidity;BME280_pressure;Samples;Min_cycle;Max_cycle;Signal;HPM_P1;HPM_P2
2023/03/26 00:00:43;;;;;;;4.53;1.83;;;7.10;13.00;;;;;;5094752;28;20422;-44
2023/03/26 00:03:13;;;;;;;2.13;1.30;;;6.90;42.70;;;;;;5095796;28;20466;-43
2023/03/26 00:05:39;;;;;;;2.50;1.67;;;6.90;86.20;;;;;;5096379;28;20417;-43
2023/03/26 00:08:10;;;;;;;2.90;1.63;;;6.90;99.90;;;;;;5095420;28;20429;-44
2023/03/26 00:10:36;;;;;;;3.30;1.37;;;6.80;99.90;;;;;;5094042;28;20763;-44
2023/03/26 00:13:04;;;;;;;4.73;1.40;;;6.90;99.90;;;;;;5094648;28;20809;-44
2023/03/26 00:15:30;;;;;;;3.27;1.43;;;6.90;99.90;;;;;;5094641;28;20437;-45
2023/03/26 00:17:55;;;;;;;3.63;1.80;;;6.90;72.70;;;;;;5092026;28;20414;-44
2023/03/26 00:20:22;;;;;;;4.93;1.87;;;7.00;1.00;;;;;;5095068;28;20497;-44
2023/03/26 00:22:47;;;;;;;4.10;1.97;;;7.00;4.80;;;;;;5095467;28;20578;-43
2023/03/26 00:25:13;;;;;;;5.77;1.80;;;7.00;1.00;;;;;;5094669;28;20448;-43
2023/03/26 00:27:40;;;;;;;3.47;2.60;;;7.00;1.00;;;;;;5092423;28;20395;-43
2023/03/26 00:30:07;;;;;;;6.63;2.30;;;6.90;1.00;;;;;;5092518;28;20426;-44
2023/03/26 00:32:32;;;;;;;3.37;2.10;;;7.00;1.00;;;;;;5091894;28;20705;-43
2023/03/26 00:35:00;;;;;;;4.23;1.93;;;7.00;1.00;;;;;;5092516;28;20427;-44
2023/03/26 00:37:26;;;;;;;3.97;1.60;;;7.00;1.00;;;;;;5092513;28;20195;-44
2023/03/26 00:39:52;;;;;;;4.73;2.23;;;7.00;1.00;;;;;;5093478;28;20429;-43
2023/03/26 00:42:19;;;;;;;3.10;1.57;;;6.90;23.20;;;;;;5094969;28;20191;-43
2023/03/26 00:44:45;;;;;;;4.33;1.80;;;6.90;39.50;;;;;;5094632;28;20454;-43
2023/03/26 00:47:12;;;;;;;5.70;2.37;;;6.90;93.90;;;;;;5094902;28;20430;-45
2023/03/26 00:49:38;;;;;;;6.70;1.80;;;6.90;99.90;;;;;;5094670;28;20474;-43
2023/03/26 00:52:07;;;;;;;4.90;1.87;;;6.90;99.90;;;;;;5093908;28;20492;-44
2023/03/26 00:54:33;;;;;;;3.83;2.07;;;6.90;99.90;;;;;;5095167;28;20422;-44
2023/03/26 00:56:59;;;;;;;4.63;2.10;;;7.00;94.20;;;;;;5093200;28;20852;-43
2023/03/26 00:59:29;;;;;;;3.93;1.67;;;7.00;98.40;;;;;;5092789;28;20475;-44
2023/03/26 01:01:57;;;;;;;3.43;1.50;;;6.90;99.90;;;;;;5095758;28;20308;-43
2023/03/26 01:04:26;;;;;;;4.93;3.10;;;7.00;99.90;;;;;;5095395;28;20714;-43
2023/03/26 01:06:53;;;;;;;3.37;1.90;;;7.00;91.30;;;;;;5096606;28;20523;-44
2023/03/26 01:12:40;;;;;;;3.70;1.57;;;6.90;99.90;;;;;;5075324;28;20402;-45
2023/03/26 01:15:07;;;;;;;2.77;1.50;;;6.90;99.90;;;;;;5075528;28;20416;-43
2023/03/26 01:17:36;;;;;;;8.00;1.50;;;6.90;99.90;;;;;;5075815;28;20274;-45
2023/03/26 01:20:12;;;;;;;5.50;2.07;;;6.90;99.90;;;;;;5075669;28;20446;-42
2023/03/26 01:22:40;;;;;;;5.10;1.43;;;6.90;99.90;;;;;;5076409;28;20446;-43
2023/03/26 01:25:08;;;;;;;2.97;1.37;;;6.90;99.90;;;;;;5097876;28;20472;-45
2023/03/26 01:27:43;;;;;;;2.70;1.77;;;6.90;99.90;;;;;;5097121;28;20571;-42
2023/03/26 01:30:36;;;;;;;6.20;1.90;;;6.90;99.90;;;;;;5097656;28;20429;-44
2023/03/26 01:33:37;;;;;;;4.53;2.27;;;6.90;99.90;;;;;;5073665;28;21003;-44
2023/03/26 01:36:26;;;;;;;5.57;1.80;;;6.90;99.90;;;;;;5087544;28;20417;-43
2023/03/26 01:38:58;;;;;;;3.73;1.33;;;6.90;93.90;;;;;;5058378;28;20430;-45
2023/03/26 01:41:29;;;;;;;8.83;2.80;;;6.90;75.40;;;;;;5094501;28;20411;-44
2023/03/26 01:44:22;;;;;;;5.00;1.60;;;6.90;42.40;;;;;;5094876;28;20549;-45
2023/03/26 01:46:49;;;;;;;2.73;1.27;;;6.90;55.70;;;;;;5095234;28;20434;-43
2023/03/26 01:49:17;;;;;;;6.67;1.97;;;7.00;1.00;;;;;;5095951;28;20418;-45
2023/03/26 01:51:43;;;;;;;5.00;1.50;;;7.00;1.00;;;;;;5096565;28;20445;-43
2023/03/26 01:54:15;;;;;;;4.90;1.70;;;7.00;1.00;;;;;;5095518;28;20414;-43
2023/03/26 01:57:06;;;;;;;4.80;1.83;;;7.00;1.00;;;;;;5077791;28;20434;-45
2023/03/26 01:59:44;;;;;;;4.50;1.30;;;7.00;1.00;;;;;;5097142;28;20450;-44
2023/03/26 02:02:37;;;;;;;4.23;1.60;;;6.90;1.00;;;;;;5095681;28;20434;-45
2023/03/26 02:05:16;;;;;;;5.50;1.63;;;6.90;1.00;;;;;;5095553;28;20763;-44
2023/03/26 02:08:10;;;;;;;3.07;1.53;;;7.00;1.00;;;;;;5096250;28;20422;-44
2023/03/26 02:10:48;;;;;;;5.00;1.67;;;7.00;1.00;;;;;;5095299;28;20506;-45
2023/03/26 02:13:14;;;;;;;5.97;1.40;;;6.90;1.00;;;;;;5095801;28;20457;-46
2023/03/26 02:15:40;;;;;;;4.90;1.43;;;6.90;1.00;;;;;;5095500;28;20429;-44
2023/03/26 02:18:09;;;;;;;3.30;1.87;;;6.90;1.00;;;;;;5094704;28;20245;-44
2023/03/26 02:20:35;;;;;;;5.43;1.70;;;6.90;1.00;;;;;;5095875;28;20455;-44
2023/03/26 02:23:01;;;;;;;3.87;1.27;;;7.00;1.00;;;;;;5094410;28;20437;-43
2023/03/26 02:25:26;;;;;;;4.67;1.83;;;7.00;1.00;;;;;;5094981;28;20406;-44
2023/03/26 02:27:52;;;;;;;3.70;1.53;;;6.90;1.00;;;;;;5094265;28;20462;-44
2023/03/26 02:30:24;;;;;;;8.63;1.70;;;7.00;1.00;;;;;;5093372;28;20192;-45
2023/03/26 02:32:51;;;;;;;6.90;1.77;;;7.00;1.00;;;;;;5094311;28;20252;-43
2023/03/26 02:35:16;;;;;;;4.20;2.13;;;7.00;1.00;;;;;;5093523;28;20425;-44
2023/03/26 02:37:45;;;;;;;2.43;1.23;;;6.90;1.00;;;;;;5094056;28;20886;-44
2023/03/26 02:40:11;;;;;;;5.47;1.80;;;6.90;1.00;;;;;;5095054;28;20318;-45
2023/03/26 02:42:37;;;;;;;3.93;1.43;;;6.80;1.00;;;;;;5094353;28;20852;-44
2023/03/26 02:45:04;;;;;;;4.80;1.50;;;6.80;1.00;;;;;;5094836;28;20462;-42
2023/03/26 02:47:30;;;;;;;3.47;1.40;;;6.90;1.00;;;;;;5097062;28;20844;-43
2023/03/26 02:49:56;;;;;;;5.90;1.70;;;6.80;1.00;;;;;;5096930;28;20543;-43
2023/03/26 02:52:21;;;;;;;4.33;1.77;;;6.90;1.00;;;;;;5096872;28;20180;-43
2023/03/26 02:54:47;;;;;;;6.13;1.50;;;6.90;1.00;;;;;;5095722;28;20188;-44
2023/03/26 02:57:12;;;;;;;5.67;1.67;;;6.80;11.50;;;;;;5097582;28;20181;-45
2023/03/26 02:59:38;;;;;;;7.40;1.90;;;6.90;28.40;;;;;;5096248;28;20208;-43
2023/03/26 03:02:04;;;;;;;3.63;1.90;;;6.90;1.00;;;;;;5096739;28;20183;-43
2023/03/26 03:04:30;;;;;;;4.23;1.90;;;6.90;1.00;;;;;;5096210;28;20200;-44
2023/03/26 03:06:56;;;;;;;5.33;1.47;;;6.90;1.00;;;;;;5096467;28;20737;-43
2023/03/26 03:09:23;;;;;;;6.50;2.00;;;6.90;6.10;;;;;;5095247;28;20453;-46
2023/03/26 03:11:50;;;;;;;5.63;2.13;;;6.90;1.00;;;;;;5095858;28;20232;-44
2023/03/26 03:14:16;;;;;;;3.87;1.90;;;6.90;1.00;;;;;;5095368;28;20766;-42
2023/03/26 03:16:42;;;;;;;4.23;1.87;;;6.90;15.30;;;;;;5095637;28;20454;-43
2023/03/26 03:19:07;;;;;;;4.73;1.83;;;7.00;26.00;;;;;;5095994;28;20168;-44
2023/03/26 03:21:33;;;;;;;1.60;1.23;;;7.00;24.20;;;;;;5095658;28;20172;-44
2023/03/26 03:23:59;;;;;;;6.50;1.97;;;7.00;22.30;;;;;;5095310;28;20203;-45
2023/03/26 03:26:28;;;;;;;4.43;1.97;;;7.10;12.30;;;;;;5093707;28;20220;-45
2023/03/26 03:28:55;;;;;;;3.63;1.90;;;7.10;1.00;;;;;;5094135;28;20176;-44
2023/03/26 03:31:21;;;;;;;6.10;2.03;;;7.10;1.00;;;;;;5094461;28;20434;-44
2023/03/26 03:33:46;;;;;;;6.33;1.87;;;7.10;1.00;;;;;;5093705;28;20533;-44
2023/03/26 03:36:16;;;;;;;2.80;1.97;;;7.00;1.00;;;;;;5094783;28;20242;-45
2023/03/26 03:38:42;;;;;;;2.90;1.70;;;7.00;1.00;;;;;;5092517;28;20180;-45
2023/03/26 03:41:08;;;;;;;6.33;1.83;;;7.00;25.00;;;;;;5094023;28;20407;-44
2023/03/26 03:43:34;;;;;;;3.40;2.00;;;7.00;43.80;;;;;;5095381;28;20218;-43
2023/03/26 03:46:00;;;;;;;4.10;1.50;;;7.00;47.80;;;;;;5096474;28;20317;-46
2023/03/26 03:48:26;;;;;;;5.87;1.80;;;7.00;37.80;;;;;;5095265;28;20442;-45
2023/03/26 03:50:52;;;;;;;4.23;2.23;;;7.00;30.30;;;;;;5094831;28;20727;-44
2023/03/26 03:53:18;;;;;;;3.93;1.80;;;7.00;27.90;;;;;;5093922;28;20441;-42
2023/03/26 03:55:51;;;;;;;5.77;1.70;;;7.10;16.50;;;;;;5094006;28;20431;-45
2023/03/26 03:58:20;;;;;;;7.13;2.20;;;7.00;1.00;;;;;;5094659;28;20204;-46
2023/03/26 04:00:49;;;;;;;3.60;1.67;;;7.00;1.00;;;;;;5094878;28;20750;-43
2023/03/26 04:03:15;;;;;;;4.23;1.80;;;7.00;1.00;;;;;;5093801;28;20466;-43
2023/03/26 04:05:42;;;;;;;7.90;2.27;;;7.00;1.00;;;;;;5093447;28;20693;-44
2023/03/26 04:08:08;;;;;;;7.97;2.00;;;7.00;1.00;;;;;;5093906;28;20612;-44
2023/03/26 04:10:33;;;;;;;8.93;2.17;;;7.00;1.00;;;;;;5094605;28;20419;-43
2023/03/26 04:12:59;;;;;;;6.40;1.97;;;7.00;1.00;;;;;;5094472;28;20180;-45
2023/03/26 04:15:25;;;;;;;5.33;2.07;;;7.00;1.00;;;;;;5094227;28;20183;-44
2023/03/26 04:17:50;;;;;;;4.30;2.30;;;7.00;1.00;;;;;;5094439;28;20177;-45
2023/03/26 04:20:18;;;;;;;3.37;1.60;;;7.10;1.00;;;;;;5094860;28;20694;-43
2023/03/26 04:22:44;;;;;;;4.17;1.37;;;7.10;1.00;;;;;;5093483;28;20208;-43
2023/03/26 04:25:10;;;;;;;5.57;1.60;;;7.10;1.00;;;;;;5094464;28;20454;-43
2023/03/26 04:27:36;;;;;;;4.83;1.73;;;7.10;1.00;;;;;;5094443;28;20474;-43
2023/03/26 04:30:05;;;;;;;6.30;1.40;;;7.10;1.00;;;;;;5094457;28;20417;-44
2023/03/26 04:32:33;;;;;;;4.63;1.60;;;7.10;1.00;;;;;;5092978;28;20410;-44
2023/03/26 04:35:02;;;;;;;3.57;1.80;;;7.10;1.00;;;;;;5097381;28;20457;-44
2023/03/26 04:37:34;;;;;;;6.40;1.70;;;7.10;1.00;;;;;;5098258;28;20839;-43
2023/03/26 04:40:09;;;;;;;3.77;1.70;;;7.10;1.00;;;;;;5097593;28;20529;-43
2023/03/26 04:42:45;;;;;;;4.60;2.07;;;7.20;1.00;;;;;;5098953;28;20440;-44
2023/03/26 04:45:12;;;;;;;3.87;1.57;;;7.10;99.90;;;;;;5096626;28;20648;-43
2023/03/26 04:47:38;;;;;;;4.77;2.13;;;7.10;99.90;;;;;;5097796;28;20741;-43
2023/03/26 04:50:08;;;;;;;4.30;2.00;;;7.10;99.90;;;;;;5098478;28;20604;-44
2023/03/26 04:52:34;;;;;;;3.73;1.50;;;7.10;99.90;;;;;;5095114;28;20422;-44
2023/03/26 04:54:59;;;;;;;8.23;2.00;;;7.10;99.90;;;;;;5095055;28;20835;-44
2023/03/26 04:57:33;;;;;;;6.20;1.87;;;7.20;99.90;;;;;;5097300;28;20537;-44
2023/03/26 04:59:59;;;;;;;7.27;1.87;;;7.20;99.90;;;;;;5097093;28;20537;-43
2023/03/26 05:02:25;;;;;;;4.87;1.53;;;7.20;99.90;;;;;;5095282;28;20426;-45
2023/03/26 05:04:50;;;;;;;4.20;2.10;;;7.20;99.90;;;;;;5094895;28;20693;-43
2023/03/26 05:07:19;;;;;;;3.90;1.73;;;7.20;99.90;;;;;;5098000;28;20410;-43
2023/03/26 05:09:44;;;;;;;7.57;2.10;;;7.10;99.90;;;;;;5097559;28;20180;-45
2023/03/26 05:12:10;;;;;;;2.23;1.67;;;7.10;99.90;;;;;;5098785;28;20434;-44
2023/03/26 05:14:35;;;;;;;3.57;1.67;;;7.10;99.90;;;;;;5097306;28;20176;-43
2023/03/26 05:17:05;;;;;;;3.90;2.10;;;7.10;99.90;;;;;;5096848;28;20184;-43
2023/03/26 05:19:31;;;;;;;3.90;1.70;;;7.10;99.90;;;;;;5095767;28;20172;-45
2023/03/26 05:21:57;;;;;;;7.10;2.53;;;7.10;99.90;;;;;;5095297;28;20522;-45
2023/03/26 05:24:23;;;;;;;5.37;1.63;;;7.20;99.90;;;;;;5096938;28;20465;-43
2023/03/26 05:26:50;;;;;;;4.50;1.53;;;7.10;99.90;;;;;;5096734;28;20490;-43
2023/03/26 05:29:16;;;;;;;10.73;2.10;;;7.10;99.90;;;;;;5097355;28;20455;-46
2023/03/26 05:31:43;;;;;;;4.50;1.90;;;7.10;99.90;;;;;;5097753;28;20477;-44
2023/03/26 05:34:09;;;;;;;6.47;2.00;;;7.10;99.90;;;;;;5096843;28;20438;-43
2023/03/26 05:36:34;;;;;;;5.23;1.93;;;7.10;99.90;;;;;;5096733;28;20776;-43
2023/03/26 05:39:00;;;;;;;5.57;2.03;;;7.10;99.90;;;;;;5098236;28;20418;-42
2023/03/26 05:41:25;;;;;;;6.50;1.93;;;7.00;99.90;;;;;;5098049;28;20173;-43
2023/03/26 05:43:51;;;;;;;7.40;1.90;;;7.00;99.90;;;;;;5097630;28;20204;-45
2023/03/26 05:46:19;;;;;;;3.97;1.90;;;7.00;99.90;;;;;;5097421;28;20172;-43
2023/03/26 05:48:45;;;;;;;8.27;2.10;;;7.00;99.90;;;;;;5096348;28;20168;-44
2023/03/26 05:51:11;;;;;;;4.00;1.70;;;7.10;99.90;;;;;;5096561;28;20412;-43
2023/03/26 05:53:37;;;;;;;3.73;2.40;;;7.10;99.90;;;;;;5096124;28;20538;-46
2023/03/26 05:56:03;;;;;;;7.87;2.10;;;7.10;99.90;;;;;;5093990;28;20521;-46
2023/03/26 05:58:30;;;;;;;6.27;2.10;;;7.10;99.90;;;;;;5094189;28;20536;-44
2023/03/26 06:00:57;;;;;;;4.60;1.80;;;7.20;1.00;;;;;;5095323;28;20403;-46
2023/03/26 06:03:23;;;;;;;3.10;1.70;;;7.30;1.00;;;;;;5095000;28;20462;-46
2023/03/26 06:05:55;;;;;;;6.03;2.20;;;7.30;99.90;;;;;;5094488;28;20666;-44
2023/03/26 06:08:21;;;;;;;8.67;2.47;;;7.30;99.90;;;;;;5094659;28;20438;-44
2023/03/26 06:10:47;;;;;;;4.80;1.63;;;7.30;99.40;;;;;;5094824;28;20408;-43
2023/03/26 06:13:15;;;;;;;6.33;1.90;;;7.30;99.90;;;;;;5096247;28;20855;-45
2023/03/26 06:15:40;;;;;;;3.53;2.10;;;7.30;1.00;;;;;;5096751;28;20441;-44
2023/03/26 06:18:06;;;;;;;10.87;2.73;;;7.30;1.00;;;;;;5096506;28;20431;-43
2023/03/26 06:20:31;;;;;;;4.40;1.97;;;7.30;1.00;;;;;;5097080;28;20578;-43
2023/03/26 06:22:57;;;;;;;8.67;3.37;;;7.30;99.90;;;;;;5097058;28;20176;-43
2023/03/26 06:25:23;;;;;;;4.70;2.03;;;7.40;99.90;;;;;;5093758;28;20200;-42
2023/03/26 06:27:48;;;;;;;10.73;2.83;;;7.40;99.90;;;;;;5094695;28;20243;-45
2023/03/26 06:30:14;;;;;;;7.77;2.30;;;7.40;99.90;;;;;;5095069;28;20327;-45
2023/03/26 06:32:40;;;;;;;6.60;2.30;;;7.40;1.00;;;;;;5095006;28;20233;-45
2023/03/26 06:35:06;;;;;;;5.00;2.20;;;7.40;99.90;;;;;;5095120;28;20168;-45
2023/03/26 06:37:31;;;;;;;4.43;1.97;;;7.40;99.90;;;;;;5094479;28;20445;-43
2023/03/26 06:39:57;;;;;;;8.43;2.43;;;7.50;99.90;;;;;;5095581;28;20419;-43
2023/03/26 06:42:23;;;;;;;6.13;2.40;;;7.40;99.90;;;;;;5095729;28;20415;-44
2023/03/26 06:44:48;;;;;;;7.40;2.30;;;7.50;1.00;;;;;;5095751;28;20295;-44
2023/03/26 06:47:14;;;;;;;5.97;1.90;;;7.50;99.90;;;;;;5096361;28;20184;-43
2023/03/26 06:49:40;;;;;;;6.47;2.17;;;7.60;31.40;;;;;;5095395;28;20191;-44
2023/03/26 06:52:06;;;;;;;4.97;1.70;;;7.60;99.90;;;;;;5095036;28;20188;-43
2023/03/26 06:54:31;;;;;;;5.00;2.20;;;7.60;1.00;;;;;;5092413;28;20820;-44
2023/03/26 06:56:58;;;;;;;5.13;2.50;;;7.60;99.90;;;;;;5092674;28;20310;-43
2023/03/26 06:59:24;;;;;;;5.43;1.97;;;7.50;1.00;;;;;;5093836;28;20183;-43
2023/03/26 07:01:50;;;;;;;5.10;1.83;;;7.50;99.90;;;;;;5095406;28;20430;-44
2023/03/26 07:04:16;;;;;;;4.20;1.90;;;7.50;99.90;;;;;;5092813;28;20519;-46
2023/03/26 07:06:41;;;;;;;5.13;2.70;;;7.50;99.90;;;;;;5095464;28;20218;-42
2023/03/26 07:09:07;;;;;;;5.77;2.53;;;7.50;1.00;;;;;;5093392;28;20168;-43
2023/03/26 07:11:32;;;;;;;4.93;2.33;;;7.50;1.00;;;;;;5095311;28;20456;-44
2023/03/26 07:13:58;;;;;;;4.10;2.20;;;7.40;1.00;;;;;;5093727;28;20180;-44
2023/03/26 07:16:24;;;;;;;4.97;2.53;;;7.40;25.20;;;;;;5094712;28;20558;-45
2023/03/26 07:18:50;;;;;;;10.40;7.03;;;7.40;55.70;;;;;;5094587;28;20176;-43
2023/03/26 07:21:18;;;;;;;6.77;3.00;;;7.30;99.90;;;;;;5095151;28;20410;-44
2023/03/26 07:23:44;;;;;;;8.40;5.10;;;7.30;99.90;;;;;;5095159;28;20497;-43
2023/03/26 07:26:37;;;;;;;13.33;7.37;;;7.30;1.00;;;;;;5094935;28;20486;-44
2023/03/26 07:29:06;;;;;;;5.73;3.23;;;7.20;1.00;;;;;;5077916;28;20562;-42
2023/03/26 07:31:45;;;;;;;7.17;4.93;;;7.20;99.90;;;;;;5093371;28;20395;-43
2023/03/26 07:34:11;;;;;;;4.87;2.27;;;7.20;99.90;;;;;;5094622;28;20429;-44
2023/03/26 07:36:37;;;;;;;4.97;3.10;;;7.10;99.90;;;;;;5094940;28;20402;-42
2023/03/26 07:39:17;;;;;;;6.90;3.83;;;7.10;1.00;;;;;;5094117;28;20165;-43
2023/03/26 07:42:03;;;;;;;6.27;3.97;;;7.00;1.00;;;;;;5094231;28;20217;-42
2023/03/26 07:45:10;;;;;;;5.93;3.17;;;7.00;1.00;;;;;;5092309;28;20740;-44
2023/03/26 07:47:36;;;;;;;4.57;2.17;;;7.00;1.00;;;;;;5083160;28;20454;-42
2023/03/26 07:50:02;;;;;;;7.53;3.23;;;6.90;1.00;;;;;;5094639;28;20692;-44
2023/03/26 07:52:28;;;;;;;8.40;3.33;;;6.90;35.60;;;;;;5094904;28;20429;-41
2023/03/26 07:54:53;;;;;;;7.97;3.03;;;6.90;99.90;;;;;;5090642;28;20422;-43
2023/03/26 07:57:32;;;;;;;7.83;2.40;;;6.90;99.90;;;;;;5093246;28;20430;-43
2023/03/26 08:00:21;;;;;;;10.90;3.13;;;7.00;99.90;;;;;;5093465;28;20168;-45
2023/03/26 08:03:11;;;;;;;9.17;3.07;;;7.00;99.90;;;;;;5093708;28;20486;-45
2023/03/26 08:05:46;;;;;;;4.40;3.10;;;7.00;99.90;;;;;;5093157;28;20429;-42
2023/03/26 08:08:24;;;;;;;6.70;2.53;;;6.90;99.90;;;;;;5095050;28;20425;-42
2023/03/26 08:11:17;;;;;;;5.40;2.73;;;6.90;99.90;;;;;;5096966;28;20917;-45
2023/03/26 08:13:49;;;;;;;6.57;2.57;;;7.00;99.90;;;;;;5098229;28;20458;-45
2023/03/26 08:16:31;;;;;;;8.73;2.40;;;6.90;99.90;;;;;;5098176;28;20407;-45
2023/03/26 08:19:15;;;;;;;5.47;2.47;;;7.00;99.90;;;;;;5097997;28;20410;-44
2023/03/26 08:21:46;;;;;;;6.77;4.40;;;7.00;99.90;;;;;;5097994;28;20427;-43
2023/03/26 08:24:21;;;;;;;7.10;3.53;;;7.00;99.90;;;;;;5099256;28;20632;-44
2023/03/26 08:27:07;;;;;;;10.17;3.40;;;7.00;99.90;;;;;;5099104;28;20469;-45
2023/03/26 08:29:48;;;;;;;8.30;3.43;;;7.00;99.90;;;;;;5098220;28;20463;-43
2023/03/26 08:32:17;;;;;;;6.53;3.80;;;7.00;1.00;;;;;;5097702;28;20433;-46
2023/03/26 08:34:42;;;;;;;6.00;3.83;;;7.00;1.00;;;;;;5098276;28;20429;-42
2023/03/26 08:37:08;;;;;;;7.97;3.17;;;7.10;1.00;;;;;;5098527;28;20422;-43
2023/03/26 08:39:36;;;;;;;9.50;2.80;;;7.10;1.00;;;;;;5097398;28;20187;-43
2023/03/26 08:42:39;;;;;;;6.53;4.10;;;7.20;1.00;;;;;;5096424;28;20424;-42
2023/03/26 08:45:19;;;;;;;8.70;3.03;;;7.30;1.00;;;;;;5096204;28;20456;-44
2023/03/26 08:48:23;;;;;;;13.33;3.80;;;7.40;99.90;;;;;;5095605;28;20491;-44
2023/03/26 08:51:03;;;;;;;5.13;2.57;;;7.40;1.00;;;;;;5094424;28;20422;-42
2023/03/26 08:53:41;;;;;;;5.63;2.87;;;7.50;99.90;;;;;;5093301;28;20827;-43
2023/03/26 08:56:25;;;;;;;6.63;3.83;;;7.50;1.00;;;;;;5095437;28;20416;-43
2023/03/26 08:59:04;;;;;;;7.73;2.70;;;7.60;1.00;;;;;;5096181;28;20758;-43
2023/03/26 09:02:14;;;;;;;3.50;2.20;;;7.70;1.00;;;;;;5095205;28;20410;-44
2023/03/26 09:05:09;;;;;;;3.80;2.20;;;7.80;1.00;;;;;;5013011;28;20558;-45
2023/03/26 09:07:53;;;;;;;4.57;2.07;;;7.90;1.00;;;;;;5013498;28;20931;-43
2023/03/26 09:10:52;;;;;;;4.00;1.80;;;8.00;99.90;;;;;;5082177;28;20413;-47
2023/03/26 09:13:27;;;;;;;2.73;2.30;;;8.10;99.90;;;;;;5097811;28;20454;-41
2023/03/26 09:16:18;;;;;;;3.50;1.63;;;8.50;99.90;;;;;;5097253;28;20409;-45
2023/03/26 09:19:12;;;;;;;3.80;1.80;;;8.90;99.90;;;;;;5097453;28;20438;-42
2023/03/26 09:22:09;;;;;;;5.00;1.60;;;9.30;99.90;;;;;;5094483;28;20409;-42
2023/03/26 09:24:43;;;;;;;5.93;2.83;;;9.50;1.00;;;;;;5095073;28;20557;-43
2023/03/26 09:27:33;;;;;;;4.00;2.00;;;9.70;1.00;;;;;;5095238;28;20522;-44
2023/03/26 09:30:11;;;;;;;7.60;1.93;;;10.00;1.00;;;;;;5095629;28;20450;-43
2023/03/26 09:32:53;;;;;;;3.77;2.30;;;10.00;99.90;;;;;;5094937;28;20434;-46
2023/03/26 09:35:56;;;;;;;5.57;1.67;;;10.10;1.00;;;;;;5097271;28;20417;-44
2023/03/26 09:38:27;;;;;;;3.77;1.80;;;10.30;1.00;;;;;;5097691;28;20513;-44
2023/03/26 09:41:15;;;;;;;3.20;1.40;;;10.70;99.90;;;;;;5096881;28;20441;-42
2023/03/26 09:43:58;;;;;;;2.83;1.47;;;11.20;99.90;;;;;;5096187;28;20466;-43
2023/03/26 09:46:27;;;;;;;2.30;1.10;;;11.40;99.90;;;;;;5095859;28;20507;-48
2023/03/26 09:49:11;;;;;;;4.80;1.23;;;11.50;1.00;;;;;;5096388;28;20395;-45
2023/03/26 09:51:55;;;;;;;3.77;1.00;;;11.30;99.90;;;;;;5097133;28;20459;-47
2023/03/26 09:54:47;;;;;;;2.27;1.43;;;11.60;1.00;;;;;;5096679;28;20438;-45
2023/03/26 09:57:33;;;;;;;1.97;1.10;;;11.60;1.00;;;;;;5094806;28;20444;-43
2023/03/26 10:00:20;;;;;;;1.83;1.10;;;11.60;99.90;;;;;;5096930;28;20418;-45
2023/03/26 10:03:11;;;;;;;1.93;1.07;;;11.40;99.90;;;;;;5096806;28;20532;-45
2023/03/26 10:05:48;;;;;;;4.07;1.20;;;11.20;1.00;;;;;;5095056;28;20716;-42
2023/03/26 10:08:23;;;;;;;2.93;0.97;;;10.90;1.00;;;;;;5095373;28;20442;-43
2023/03/26 10:10:54;;;;;;;1.93;0.87;;;11.00;99.90;;;;;;5097146;28;20418;-46
2023/03/26 10:13:58;;;;;;;3.93;1.30;;;11.40;1.00;;;;;;5095986;28;20418;-45
2023/03/26 10:16:33;;;;;;;2.13;1.20;;;11.50;1.00;;;;;;5088294;28;20414;-43
2023/03/26 10:19:14;;;;;;;1.90;1.00;;;11.30;1.00;;;;;;5093418;28;20417;-44
2023/03/26 10:21:46;;;;;;;1.90;0.90;;;11.60;1.00;;;;;;5095838;28;20468;-43
2023/03/26 10:24:33;;;;;;;1.60;0.70;;;11.70;99.90;;;;;;5094157;28;20843;-44
2023/03/26 10:27:22;;;;;;;1.70;1.00;;;11.70;1.00;;;;;;5095349;28;20486;-43
2023/03/26 10:30:07;;;;;;;1.00;0.60;;;11.50;1.00;;;;;;5093842;28;20430;-44
2023/03/26 10:33:04;;;;;;;2.47;0.80;;;11.30;1.00;;;;;;5095662;28;20434;-44
2023/03/26 10:35:58;;;;;;;1.83;0.60;;;11.30;99.90;;;;;;5095397;28;20415;-44
2023/03/26 10:38:29;;;;;;;3.60;0.80;;;11.60;1.00;;;;;;5096928;28;20491;-42
2023/03/26 10:41:20;;;;;;;3.40;1.50;;;11.70;99.90;;;;;;5096661;28;20454;-43
2023/03/26 10:44:20;;;;;;;4.83;1.27;;;11.80;99.90;;;;;;5094210;28;20543;-44
2023/03/26 10:47:24;;;;;;;4.13;1.23;;;12.00;99.90;;;;;;5093812;28;20845;-43
2023/03/26 10:49:55;;;;;;;2.03;0.90;;;12.10;99.90;;;;;;5095391;28;20397;-45
2023/03/26 10:52:23;;;;;;;1.60;0.50;;;12.20;99.90;;;;;;5095207;28;20416;-45
2023/03/26 10:54:55;;;;;;;1.30;0.90;;;12.40;63.90;;;;;;5094367;28;20433;-44
2023/03/26 10:57:23;;;;;;;2.83;1.10;;;12.10;45.10;;;;;;5093160;28;21072;-43
2023/03/26 10:59:50;;;;;;;2.13;1.00;;;11.90;34.00;;;;;;5095112;28;20809;-43
2023/03/26 11:02:30;;;;;;;3.27;1.83;;;12.00;1.00;;;;;;5095713;28;20434;-45
2023/03/26 11:05:02;;;;;;;1.63;0.67;;;12.20;1.00;;;;;;5096232;28;20481;-43
2023/03/26 11:07:39;;;;;;;1.90;1.30;;;12.40;1.00;;;;;;5095321;28;20431;-45
2023/03/26 11:10:11;;;;;;;2.03;1.00;;;12.40;1.00;;;;;;5093114;28;21015;-43
2023/03/26 11:13:12;;;;;;;2.13;0.70;;;12.30;1.00;;;;;;5093080;28;20704;-44
2023/03/26 11:15:59;;;;;;;1.90;1.20;;;12.30;1.00;;;;;;5081064;28;20488;-43
2023/03/26 11:18:42;;;;;;;1.90;0.97;;;12.50;1.00;;;;;;5092301;28;20484;-44
2023/03/26 11:21:35;;;;;;;1.30;0.60;;;13.40;1.00;;;;;;5092474;28;20417;-42
2023/03/26 11:24:27;;;;;;;2.93;1.03;;;13.50;1.00;;;;;;5092799;28;20506;-43
2023/03/26 11:27:22;;;;;;;1.30;0.80;;;13.80;1.00;;;;;;5091239;28;20474;-43
2023/03/26 11:30:09;;;;;;;2.27;1.00;;;13.90;1.00;;;;;;5072665;28;20430;-43
2023/03/26 11:32:44;;;;;;;1.43;0.50;;;14.00;1.00;;;;;;5093644;28;20410;-43
2023/03/26 11:35:26;;;;;;;1.83;0.80;;;14.10;1.00;;;;;;5092001;28;20620;-46
2023/03/26 11:37:56;;;;;;;3.40;1.90;;;14.90;1.00;;;;;;5091868;28;20515;-44
2023/03/26 11:40:32;;;;;;;4.73;1.17;;;16.00;1.00;;;;;;5093659;28;20425;-44
2023/03/26 11:43:01;;;;;;;1.70;0.90;;;16.60;1.00;;;;;;5093005;28;20432;-44
2023/03/26 11:45:30;;;;;;;1.83;0.63;;;17.40;1.00;;;;;;5093244;28;20458;-42
2023/03/26 11:48:18;;;;;;;1.83;0.93;;;18.40;1.00;;;;;;5091319;28;20418;-43
2023/03/26 11:50:46;;;;;;;3.60;0.87;;;19.00;1.00;;;;;;5093669;28;20414;-45
2023/03/26 11:53:16;;;;;;;2.33;1.00;;;19.30;1.00;;;;;;5091452;28;20453;-45
2023/03/26 11:55:54;;;;;;;1.40;0.70;;;19.30;1.00;;;;;;5092034;28;20411;-45
2023/03/26 11:58:29;;;;;;;1.87;1.00;;;19.00;1.00;;;;;;5091933;28;20516;-43
2023/03/26 12:00:55;;;;;;;2.13;1.00;;;18.40;1.00;;;;;;5091140;28;20748;-45
2023/03/26 12:03:21;;;;;;;4.73;1.17;;;18.00;1.00;;;;;;5092325;28;20472;-41
2023/03/26 12:05:52;;;;;;;1.87;0.80;;;18.10;1.00;;;;;;5094052;28;20661;-44
2023/03/26 12:08:22;;;;;;;2.90;1.20;;;17.80;1.00;;;;;;5092531;28;20176;-44
2023/03/26 12:11:00;;;;;;;4.63;0.80;;;18.20;1.00;;;;;;5093685;28;20427;-44
2023/03/26 12:13:34;;;;;;;2.30;1.03;;;18.40;1.00;;;;;;5091241;28;20430;-42
2023/03/26 12:16:14;;;;;;;3.50;0.87;;;19.00;1.00;;;;;;5115302;27;20848;-41
2023/03/26 12:18:42;;;;;;;1.90;1.00;;;20.00;1.00;;;;;;5090512;28;20430;-43
2023/03/26 12:21:16;;;;;;;1.90;0.87;;;20.50;1.00;;;;;;5085623;28;20537;-41
2023/03/26 12:24:00;;;;;;;1.73;0.67;;;19.30;1.00;;;;;;5087800;28;20466;-41
2023/03/26 12:26:33;;;;;;;1.83;0.90;;;18.60;1.00;;;;;;5087260;28;20470;-42
2023/03/26 12:29:11;;;;;;;4.47;1.10;;;18.70;1.00;;;;;;5085156;28;20429;-40
2023/03/26 12:32:02;;;;;;;1.33;0.70;;;19.00;1.00;;;;;;5089876;28;20690;-42
2023/03/26 12:34:30;;;;;;;2.47;0.87;;;19.10;1.00;;;;;;5085777;28;20444;-42
2023/03/26 12:37:00;;;;;;;2.00;0.93;;;20.00;1.00;;;;;;5090776;28;20438;-41
2023/03/26 12:39:29;;;;;;;2.87;1.10;;;20.80;1.00;;;;;;5092254;28;20418;-42
2023/03/26 12:41:57;;;;;;;2.43;0.80;;;20.20;1.00;;;;;;5089495;28;20434;-41
2023/03/26 12:44:35;;;;;;;2.37;1.00;;;20.20;1.00;;;;;;5087671;28;20946;-39
2023/03/26 12:47:20;;;;;;;4.20;1.20;;;19.80;1.00;;;;;;5087808;28;20433;-41
2023/03/26 12:49:48;;;;;;;2.07;1.13;;;20.00;1.00;;;;;;5091015;28;20466;-41
2023/03/26 12:52:37;;;;;;;4.13;1.30;;;21.00;1.00;;;;;;5089519;28;20434;-43
2023/03/26 12:55:30;;;;;;;1.80;0.70;;;20.80;1.00;;;;;;5092513;28;20434;-41
2023/03/26 12:58:21;;;;;;;3.40;1.00;;;21.70;1.00;;;;;;5095856;28;20426;-40
2023/03/26 13:01:14;;;;;;;1.20;0.70;;;20.80;1.00;;;;;;5096638;28;20419;-44
2023/03/26 13:04:03;;;;;;;1.43;0.67;;;20.80;1.00;;;;;;5092829;28;20843;-40
2023/03/26 13:06:52;;;;;;;2.80;2.00;;;20.80;1.00;;;;;;5077331;28;20427;-41
2023/03/26 13:09:42;;;;;;;3.40;2.17;;;21.60;1.00;;;;;;5087965;28;20423;-42
2023/03/26 13:12:33;;;;;;;3.10;0.90;;;22.00;1.00;;;;;;5095240;28;20438;-42
2023/03/26 13:15:19;;;;;;;4.40;2.90;;;21.40;1.00;;;;;;5089865;28;20448;-41
2023/03/26 13:17:45;;;;;;;1.60;0.77;;;21.20;1.00;;;;;;5090826;28;20557;-43
2023/03/26 13:20:50;;;;;;;2.57;0.93;;;21.60;1.00;;;;;;5092880;28;20588;-42
2023/03/26 13:23:46;;;;;;;2.30;0.80;;;21.60;1.00;;;;;;5094728;28;20187;-41
2023/03/26 13:26:35;;;;;;;1.90;0.80;;;21.20;1.00;;;;;;5092929;28;20475;-41
2023/03/26 13:29:29;;;;;;;8.13;3.53;;;19.90;1.00;;;;;;5063553;28;20427;-42
2023/03/26 13:32:12;;;;;;;1.90;0.70;;;18.90;1.00;;;;;;5075481;28;20442;-42
2023/03/26 13:35:00;;;;;;;3.20;0.87;;;18.10;1.00;;;;;;5089933;28;20449;-41
2023/03/26 13:37:32;;;;;;;2.90;1.00;;;16.90;1.00;;;;;;5076227;28;21006;-45